createdAt,value
2017-09-04T17:44:54.598Z,2.30
2017-09-04T17:47:22.142Z,2.45
2017-09-04T17:49:50.169Z,2.50
2017-09-04T17:52:17.708Z,2.10
2017-09-04T17:54:43.973Z,2.20
2017-09-04T18:03:33.221Z,2.17
2017-09-04T18:11:54.477Z,2.60
2017-09-04T18:20:15.754Z,2.60
2017-09-04T18:28:37.017Z,6.90
2017-09-04T18:36:58.242Z,6.17
2017-09-04T18:45:19.614Z,4.00
2017-09-04T18:53:40.892Z,4.33
2017-09-04T19:02:02.163Z,4.40
2017-09-04T19:10:23.481Z,3.83
2017-09-04T19:18:44.740Z,3.90
2017-09-04T19:27:07.042Z,4.13
2017-09-04T19:35:28.301Z,4.37
2017-09-04T19:43:49.560Z,4.97
2017-09-04T19:52:10.862Z,4.20
2017-09-04T20:00:32.116Z,3.87
2017-09-04T20:08:53.411Z,3.90
2017-09-04T20:17:14.719Z,3.70
2017-09-04T20:25:36.029Z,4.00
2017-09-04T20:33:57.280Z,3.67
2017-09-04T20:42:18.526Z,3.97
2017-09-04T20:50:39.808Z,4.03
2017-09-04T20:59:01.090Z,4.57
2017-09-04T21:07:22.352Z,4.40
2017-09-04T21:15:43.653Z,4.97
2017-09-04T21:24:05.079Z,5.10
2017-09-04T21:32:26.388Z,5.67
2017-09-04T21:40:47.693Z,5.20
2017-09-04T21:49:08.952Z,4.20
2017-09-04T21:57:30.197Z,4.30
2017-09-04T22:05:51.473Z,5.00
2017-09-04T22:14:12.735Z,4.53
2017-09-04T22:22:33.994Z,5.07
2017-09-04T22:30:55.308Z,4.80
2017-09-04T22:39:16.569Z,5.63
2017-09-04T22:47:37.845Z,4.40
2017-09-04T22:55:59.117Z,4.50
2017-09-04T23:04:20.400Z,4.13
2017-09-04T23:12:41.670Z,4.80
2017-09-04T23:21:02.945Z,4.67
2017-09-04T23:29:24.221Z,5.33
2017-09-04T23:37:45.501Z,5.30
2017-09-04T23:46:06.788Z,5.23
2017-09-04T23:54:28.033Z,5.50
